createdAt,value
2022-10-17T00:00:05.520Z,101762.66
2022-10-17T00:02:32.176Z,101764.53
2022-10-17T00:04:58.638Z,101765.44
2022-10-17T00:07:25.398Z,101769.00
2022-10-17T00:09:52.189Z,101770.78
2022-10-17T00:12:18.619Z,101770.94
2022-10-17T00:14:45.032Z,101767.47
2022-10-17T00:17:11.502Z,101758.84
2022-10-17T00:19:37.919Z,101745.75
2022-10-17T00:22:04.301Z,101749.31
2022-10-17T00:24:31.936Z,101746.69
2022-10-17T00:26:58.485Z,101742.38
2022-10-17T00:29:24.873Z,101734.69
2022-10-17T00:31:55.132Z,101727.78
2022-10-17T00:34:21.780Z,101727.84
2022-10-17T00:36:48.214Z,101742.72
2022-10-17T00:39:14.615Z,101733.25
2022-10-17T00:41:41.130Z,101737.63
2022-10-17T00:44:30.138Z,101744.56
2022-10-17T00:47:04.926Z,101736.78
2022-10-17T00:49:34.500Z,101729.78
2022-10-17T00:52:04.792Z,101731.56
2022-10-17T00:54:35.806Z,101731.56
2022-10-17T00:57:03.430Z,101735.94
2022-10-17T00:59:32.983Z,101730.72
2022-10-17T01:02:10.114Z,101729.94
2022-10-17T01:04:39.021Z,101725.53
2022-10-17T01:07:05.481Z,101728.25
2022-10-17T01:09:31.975Z,101723.09
2022-10-17T01:12:16.005Z,101720.63
2022-10-17T01:15:01.445Z,101712.94
2022-10-17T01:17:39.712Z,101711.25
2022-10-17T01:20:24.917Z,101706.13
2022-10-17T01:23:10.356Z,101708.78
2022-10-17T01:25:55.984Z,101707.94
2022-10-17T01:29:10.379Z,101707.94
2022-10-17T01:31:59.197Z,101712.34
2022-10-17T01:34:36.008Z,101698.31
2022-10-17T01:37:26.262Z,101695.69
2022-10-17T01:40:00.329Z,101704.41
2022-10-17T01:42:55.759Z,101707.00
2022-10-17T01:45:27.969Z,101695.69
2022-10-17T01:47:58.234Z,101699.16
2022-10-17T01:50:39.037Z,101693.94
2022-10-17T01:53:11.798Z,101694.72
2022-10-17T01:55:42.086Z,101690.41
2022-10-17T01:58:25.130Z,101689.56
2022-10-17T02:00:53.389Z,101682.63
2022-10-17T02:03:21.519Z,101677.31
2022-10-17T02:05:48.162Z,101672.09
2022-10-17T02:08:24.331Z,101664.22
2022-10-17T02:10:55.795Z,101660.69
2022-10-17T02:13:53.189Z,101657.13
2022-10-17T02:16:41.415Z,101645.75
2022-10-17T02:19:23.073Z,101647.50
2022-10-17T02:22:11.275Z,101648.38
2022-10-17T02:24:43.681Z,101648.28
2022-10-17T02:27:43.915Z,101647.34
2022-10-17T02:30:42.542Z,101648.22
2022-10-17T02:33:20.934Z,101653.34
2022-10-17T02:35:53.226Z,101644.56
2022-10-17T02:38:21.521Z,101645.34
2022-10-17T02:40:51.559Z,101647.00
2022-10-17T02:43:18.094Z,101645.16
2022-10-17T02:45:46.596Z,101635.53
2022-10-17T02:48:22.330Z,101636.31
2022-10-17T02:51:14.552Z,101633.75
2022-10-17T02:53:51.825Z,101631.16
2022-10-17T02:56:20.642Z,101646.84
2022-10-17T02:58:51.674Z,101639.84
2022-10-17T03:01:19.321Z,101638.16
2022-10-17T03:03:45.922Z,101644.34
2022-10-17T03:06:12.379Z,101643.38
2022-10-17T03:11:10.397Z,101660.78
2022-10-17T03:13:39.748Z,101650.97
2022-10-17T03:16:06.619Z,101651.91
2022-10-17T03:18:33.050Z,101644.84
2022-10-17T03:20:59.460Z,101649.81
2022-10-17T03:23:25.844Z,101644.41
2022-10-17T03:25:52.246Z,101650.44
2022-10-17T03:28:18.653Z,101648.47
2022-10-17T03:30:45.055Z,101643.97
2022-10-17T03:33:11.466Z,101651.69
2022-10-17T03:35:40.328Z,101653.34
2022-10-17T03:38:06.997Z,101654.13
2022-10-17T03:40:33.488Z,101659.19
2022-10-17T03:42:59.892Z,101651.25
2022-10-17T03:45:26.320Z,101658.09
2022-10-17T03:47:52.750Z,101657.09
2022-10-17T03:50:19.160Z,101675.16
2022-10-17T03:52:49.583Z,101675.16
2022-10-17T03:55:16.397Z,101674.25
2022-10-17T03:57:45.437Z,101670.59
2022-10-17T04:00:12.999Z,101661.72
2022-10-17T04:02:39.601Z,101662.50
2022-10-17T04:05:06.652Z,101658.09
2022-10-17T04:07:33.239Z,101657.94
2022-10-17T04:09:59.747Z,101662.16
2022-10-17T04:12:26.373Z,101654.19
2022-10-17T04:14:52.981Z,101655.13
2022-10-17T04:17:19.423Z,101672.63
2022-10-17T04:19:45.859Z,101660.28
2022-10-17T04:22:12.242Z,101664.84
2022-10-17T04:24:38.636Z,101673.53
2022-10-17T04:27:05.067Z,101680.50
2022-10-17T04:29:31.458Z,101677.94
2022-10-17T04:31:57.850Z,101676.25
2022-10-17T04:34:24.300Z,101672.88
2022-10-17T04:36:51.912Z,101675.59
2022-10-17T04:39:18.713Z,101673.88
2022-10-17T04:41:45.184Z,101681.56
2022-10-17T04:44:11.708Z,101672.69
2022-10-17T04:46:38.127Z,101682.25
2022-10-17T04:49:04.836Z,101683.00
2022-10-17T04:51:31.397Z,101696.13
2022-10-17T04:53:57.811Z,101694.34
2022-10-17T04:56:25.078Z,101700.34
2022-10-17T04:58:52.237Z,101703.72
2022-10-17T05:01:21.310Z,101697.63
2022-10-17T05:03:48.283Z,101702.63
2022-10-17T05:06:20.252Z,101708.53
2022-10-17T05:08:47.444Z,101706.75
2022-10-17T05:11:22.891Z,101704.13
2022-10-17T05:13:54.627Z,101700.50
2022-10-17T05:16:21.877Z,101710.91
2022-10-17T05:18:52.843Z,101701.34
2022-10-17T05:21:20.909Z,101702.97
2022-10-17T05:23:47.494Z,101707.25
2022-10-17T05:26:14.349Z,101703.81
2022-10-17T05:28:40.876Z,101705.38
2022-10-17T05:31:09.330Z,101701.00
2022-10-17T05:33:36.844Z,101708.78
2022-10-17T05:36:03.478Z,101714.84
2022-10-17T05:38:29.913Z,101717.25
2022-10-17T05:41:00.387Z,101715.34
2022-10-17T05:43:27.589Z,101726.63
2022-10-17T05:45:54.546Z,101726.63
2022-10-17T05:48:22.554Z,101729.22
2022-10-17T05:50:49.861Z,101729.22
2022-10-17T05:53:17.420Z,101717.91
2022-10-17T05:55:43.831Z,101717.97
2022-10-17T05:58:17.688Z,101709.09
2022-10-17T06:00:49.005Z,101700.28
2022-10-17T06:03:15.428Z,101709.78
2022-10-17T06:05:41.906Z,101703.59
2022-10-17T06:08:08.351Z,101706.22
2022-10-17T06:10:34.753Z,101714.91
2022-10-17T06:13:01.319Z,101710.44
2022-10-17T06:15:27.720Z,101720.94
2022-10-17T06:17:54.170Z,101722.72
2022-10-17T06:20:20.847Z,101723.66
2022-10-17T06:22:47.274Z,101716.53
2022-10-17T06:25:13.710Z,101717.47
2022-10-17T06:27:40.225Z,101730.41
2022-10-17T06:30:07.251Z,101743.38
2022-10-17T06:32:33.787Z,101745.88
2022-10-17T06:35:00.208Z,101752.91
2022-10-17T06:37:32.292Z,101751.91
2022-10-17T06:40:03.159Z,101753.41
2022-10-17T06:42:29.617Z,101759.44
2022-10-17T06:44:56.082Z,101757.66
2022-10-17T06:47:22.508Z,101753.06
2022-10-17T06:49:48.915Z,101757.31
2022-10-17T06:52:17.086Z,101765.91
2022-10-17T06:54:44.398Z,101765.84
2022-10-17T06:57:10.971Z,101777.06
2022-10-17T06:59:38.099Z,101772.66
2022-10-17T07:02:05.454Z,101783.16
2022-10-17T07:04:32.127Z,101784.75
2022-10-17T07:09:30.688Z,101779.16
2022-10-17T07:11:57.682Z,101784.25
2022-10-17T07:14:24.350Z,101792.78
2022-10-17T07:16:50.918Z,101796.25
2022-10-17T07:19:17.383Z,101798.78
2022-10-17T07:21:43.765Z,101794.28
2022-10-17T07:24:10.280Z,101801.16
2022-10-17T07:26:36.685Z,101805.44
2022-10-17T07:29:03.397Z,101801.91
2022-10-17T07:31:29.830Z,101786.25
2022-10-17T07:33:56.237Z,101797.50
2022-10-17T07:36:22.658Z,101787.91
2022-10-17T07:38:49.103Z,101808.00
2022-10-17T07:41:19.290Z,101807.81
2022-10-17T07:43:48.419Z,101814.66
2022-10-17T07:46:14.893Z,101802.47
2022-10-17T07:48:41.632Z,101809.50
2022-10-17T07:51:09.879Z,101827.78
2022-10-17T07:53:37.781Z,101834.72
2022-10-17T07:56:08.316Z,101851.31
2022-10-17T07:58:35.770Z,101872.16
2022-10-17T08:01:14.758Z,101908.72
2022-10-17T08:03:44.727Z,101930.63
2022-10-17T08:06:12.069Z,101942.91
2022-10-17T08:08:38.502Z,101944.69
2022-10-17T08:11:10.179Z,101955.03
2022-10-17T08:13:39.105Z,101960.28
2022-10-17T08:16:08.492Z,101964.59
2022-10-17T08:18:36.309Z,101954.09
2022-10-17T08:21:06.373Z,101969.75
2022-10-17T08:23:32.858Z,101963.31
2022-10-17T08:26:00.905Z,101943.00
2022-10-17T08:28:27.402Z,101928.75
2022-10-17T08:30:53.997Z,101938.91
2022-10-17T08:33:20.392Z,101936.97
2022-10-17T08:35:46.863Z,101944.72
2022-10-17T08:38:13.534Z,101953.38
2022-10-17T08:40:42.816Z,101956.00
2022-10-17T08:43:21.576Z,101974.13
2022-10-17T08:46:03.719Z,101987.06
2022-10-17T08:48:34.605Z,102008.09
2022-10-17T08:51:10.556Z,102001.72
2022-10-17T08:53:58.163Z,102017.13
2022-10-17T08:56:44.504Z,102024.19
2022-10-17T08:59:20.400Z,102032.81
2022-10-17T09:02:14.933Z,102009.34
2022-10-17T09:05:01.818Z,101997.13
2022-10-17T09:07:51.514Z,101972.66
2022-10-17T09:10:17.866Z,101964.78
2022-10-17T09:13:07.620Z,101937.66
2022-10-17T09:16:01.420Z,101921.91
2022-10-17T09:18:32.709Z,101931.41
2022-10-17T09:21:06.745Z,101933.75
2022-10-17T09:23:48.887Z,101944.22
2022-10-17T09:26:15.454Z,101949.47
2022-10-17T09:28:43.288Z,101947.56
2022-10-17T09:31:21.538Z,101964.19
2022-10-17T09:33:54.897Z,101987.75
2022-10-17T09:36:36.640Z,101996.47
2022-10-17T09:39:17.699Z,102014.03
2022-10-17T09:41:49.574Z,102016.53
2022-10-17T09:44:15.951Z,102004.34
2022-10-17T09:46:50.007Z,101983.44
2022-10-17T09:49:42.312Z,101966.81
2022-10-17T09:52:22.095Z,101964.00
2022-10-17T09:54:52.587Z,101950.69
2022-10-17T09:57:21.109Z,101968.81
2022-10-17T09:59:57.614Z,101965.91
2022-10-17T10:02:25.462Z,101964.78
2022-10-17T10:05:14.226Z,101963.66
2022-10-17T10:07:40.680Z,101995.88
2022-10-17T10:10:23.829Z,102015.16
2022-10-17T10:13:16.658Z,102006.38
2022-10-17T10:15:47.505Z,102010.72
2022-10-17T10:18:35.638Z,102014.09
2022-10-17T10:21:04.969Z,102028.78
2022-10-17T10:23:31.445Z,102044.25
2022-10-17T10:26:21.469Z,102057.41
2022-10-17T10:28:52.687Z,102064.44
2022-10-17T10:31:27.318Z,102074.13
2022-10-17T10:33:56.887Z,102082.94
2022-10-17T10:36:24.233Z,102086.41
2022-10-17T10:38:55.021Z,102081.13
2022-10-17T10:41:21.695Z,102084.63
2022-10-17T10:43:51.495Z,102088.13
2022-10-17T10:46:17.871Z,102081.84
2022-10-17T10:49:00.147Z,102081.63
2022-10-17T10:51:32.417Z,102094.69
2022-10-17T10:54:19.070Z,102085.03
2022-10-17T10:56:58.042Z,102094.59
2022-10-17T10:59:38.146Z,102096.38
2022-10-17T11:02:25.285Z,102100.63
2022-10-17T11:05:14.490Z,102102.31
2022-10-17T11:08:06.344Z,102106.28
2022-10-17T11:10:44.427Z,102117.47
2022-10-17T11:13:17.932Z,102117.22
2022-10-17T11:16:14.383Z,102116.94
2022-10-17T11:18:47.494Z,102115.91
2022-10-17T11:21:23.716Z,102120.03
2022-10-17T11:24:29.939Z,102131.81
2022-10-17T11:27:02.790Z,102130.78
2022-10-17T11:29:34.774Z,102136.06
2022-10-17T11:32:11.349Z,102139.59
2022-10-17T11:34:59.837Z,102142.41
2022-10-17T11:37:31.306Z,102145.22
2022-10-17T11:40:20.473Z,102153.31
2022-10-17T11:42:57.106Z,102163.16
2022-10-17T11:45:27.642Z,102158.00
2022-10-17T11:48:12.575Z,102162.41
2022-10-17T11:53:54.813Z,102166.72
2022-10-17T11:56:50.979Z,102171.91
2022-10-17T11:59:35.566Z,102171.81
2022-10-17T12:02:09.106Z,102164.59
2022-10-17T12:05:18.539Z,102162.53
2022-10-17T12:07:57.183Z,102163.88
2022-10-17T12:10:49.139Z,102162.75
2022-10-17T12:13:27.790Z,102171.22
2022-10-17T12:15:55.857Z,102163.13
2022-10-17T12:18:25.505Z,102162.97
2022-10-17T12:20:57.900Z,102155.84
2022-10-17T12:23:36.306Z,102167.31
2022-10-17T12:26:08.556Z,102173.44
2022-10-17T12:28:37.958Z,102175.97
2022-10-17T12:31:13.068Z,102179.25
2022-10-17T12:33:48.514Z,102181.31
2022-10-17T12:36:27.333Z,102182.16
2022-10-17T12:38:56.444Z,102182.16
2022-10-17T12:41:38.192Z,102178.69
2022-10-17T12:44:13.969Z,102183.84
2022-10-17T12:46:55.704Z,102190.91
2022-10-17T12:49:37.388Z,102192.69
2022-10-17T12:52:18.112Z,102189.44
2022-10-17T12:55:00.227Z,102199.22
2022-10-17T12:57:40.668Z,102199.31
2022-10-17T13:00:31.654Z,102202.81
2022-10-17T13:03:14.460Z,102200.34
2022-10-17T13:05:50.605Z,102203.91
2022-10-17T13:08:22.088Z,102210.13
2022-10-17T13:10:52.504Z,102205.88
2022-10-17T13:13:21.074Z,102218.19
2022-10-17T13:15:53.139Z,102223.56
2022-10-17T13:18:25.721Z,102225.31
2022-10-17T13:21:01.357Z,102226.19
2022-10-17T13:23:37.121Z,102234.75
2022-10-17T13:26:04.925Z,102233.91
2022-10-17T13:28:33.858Z,102236.53
2022-10-17T13:31:02.344Z,102241.78
2022-10-17T13:33:35.618Z,102250.44
2022-10-17T13:36:06.660Z,102256.47
2022-10-17T13:38:36.755Z,102265.75
2022-10-17T13:41:34.244Z,102260.94
2022-10-17T13:43:59.527Z,102267.72
2022-10-17T13:46:38.045Z,102268.50
2022-10-17T13:49:15.375Z,102273.59
2022-10-17T13:51:47.832Z,102277.91
2022-10-17T13:54:45.142Z,102284.97
2022-10-17T13:57:21.007Z,102287.41
2022-10-17T13:59:53.671Z,102293.59
2022-10-17T14:02:23.641Z,102290.03
2022-10-17T14:05:17.768Z,102289.09
2022-10-17T14:08:12.339Z,102289.94
2022-10-17T14:10:42.194Z,102294.25
2022-10-17T14:13:20.841Z,102289.88
2022-10-17T14:15:47.569Z,102286.28
2022-10-17T14:18:19.068Z,102281.03
2022-10-17T14:23:43.095Z,102282.81
2022-10-17T14:26:09.555Z,102283.56
2022-10-17T14:28:36.931Z,102286.00
2022-10-17T14:31:31.291Z,102286.78
2022-10-17T14:33:58.056Z,102275.88
2022-10-17T14:36:42.712Z,102281.53
2022-10-17T14:39:20.222Z,102285.31
2022-10-17T14:41:47.928Z,102295.59
2022-10-17T14:44:32.619Z,102290.78
2022-10-17T14:47:18.254Z,102300.19
2022-10-17T14:49:51.362Z,102298.31
2022-10-17T14:52:18.860Z,102293.81
2022-10-17T14:54:50.320Z,102297.47
2022-10-17T14:57:24.751Z,102301.22
2022-10-17T14:59:54.327Z,102295.38
2022-10-17T15:02:25.895Z,102295.66
2022-10-17T15:04:52.852Z,102307.31
2022-10-17T15:07:21.163Z,102320.84
2022-10-17T15:09:49.052Z,102331.69
2022-10-17T15:12:18.934Z,102327.44
2022-10-17T15:14:47.345Z,102323.28
2022-10-17T15:17:24.884Z,102321.50
2022-10-17T15:19:51.410Z,102322.34
2022-10-17T15:22:18.394Z,102332.03
2022-10-17T15:24:48.297Z,102325.81
2022-10-17T15:27:23.215Z,102337.31
2022-10-17T15:29:50.424Z,102332.97
2022-10-17T15:32:17.280Z,102331.25
2022-10-17T15:34:44.129Z,102333.88
2022-10-17T15:37:25.423Z,102342.81
2022-10-17T15:39:54.575Z,102351.66
2022-10-17T15:42:26.483Z,102350.03
2022-10-17T15:44:53.479Z,102353.72
2022-10-17T15:47:25.658Z,102357.38
2022-10-17T15:49:53.114Z,102366.41
2022-10-17T15:52:19.633Z,102366.63
2022-10-17T15:54:46.096Z,102370.38
2022-10-17T15:57:18.679Z,102369.72
2022-10-17T15:59:46.971Z,102377.09
2022-10-17T16:02:15.359Z,102379.03
2022-10-17T16:04:41.883Z,102386.25
2022-10-17T16:07:08.356Z,102382.00
2022-10-17T16:09:37.306Z,102376.06
2022-10-17T16:12:13.997Z,102386.75
2022-10-17T16:14:40.898Z,102380.03
2022-10-17T16:17:12.794Z,102388.97
2022-10-17T16:19:39.237Z,102403.31
2022-10-17T16:22:06.686Z,102404.41
2022-10-17T16:24:33.101Z,102405.53
2022-10-17T16:26:59.517Z,102411.84
2022-10-17T16:29:25.932Z,102424.25
2022-10-17T16:31:52.443Z,102413.97
2022-10-17T16:34:18.883Z,102412.38
2022-10-17T16:36:45.293Z,102419.56
2022-10-17T16:39:11.765Z,102418.88
2022-10-17T16:41:39.444Z,102422.53
2022-10-17T16:44:09.115Z,102421.91
2022-10-17T16:46:37.287Z,102433.41
2022-10-17T16:49:05.512Z,102432.66
2022-10-17T16:51:33.812Z,102426.63
2022-10-17T16:54:00.325Z,102430.19
2022-10-17T16:56:32.540Z,102430.44
2022-10-17T16:59:00.845Z,102431.53
2022-10-17T17:01:29.317Z,102437.72
2022-10-17T17:03:56.349Z,102433.47
2022-10-17T17:06:26.918Z,102442.28
2022-10-17T17:08:54.648Z,102440.59
2022-10-17T17:11:22.966Z,102446.06
2022-10-17T17:13:49.501Z,102442.69
2022-10-17T17:16:21.781Z,102446.31
2022-10-17T17:18:51.433Z,102447.31
2022-10-17T17:21:17.879Z,102450.09
2022-10-17T17:23:44.321Z,102447.47
2022-10-17T17:26:16.810Z,102464.25
2022-10-17T17:28:43.871Z,102458.22
2022-10-17T17:31:13.000Z,102457.38
2022-10-17T17:33:40.628Z,102460.03
2022-10-17T17:36:08.437Z,102453.00
2022-10-17T17:38:36.245Z,102459.19
2022-10-17T17:41:03.951Z,102461.91
2022-10-17T17:43:30.773Z,102466.31
2022-10-17T17:45:57.198Z,102472.47
2022-10-17T17:48:23.661Z,102478.66
2022-10-17T17:50:50.138Z,102480.44
2022-10-17T17:53:17.745Z,102480.50
2022-10-17T17:55:44.727Z,102484.16
2022-10-17T17:58:12.306Z,102475.41
2022-10-17T18:00:40.685Z,102481.59
2022-10-17T18:03:07.399Z,102489.47
2022-10-17T18:05:34.236Z,102489.56
2022-10-17T18:08:00.785Z,102497.50
2022-10-17T18:10:28.394Z,102493.19
2022-10-17T18:12:54.863Z,102499.28
2022-10-17T18:15:21.456Z,102497.59
2022-10-17T18:17:48.136Z,102502.91
2022-10-17T18:20:14.631Z,102496.00
2022-10-17T18:22:41.141Z,102500.41
2022-10-17T18:25:07.909Z,102514.56
2022-10-17T18:27:34.382Z,102522.44
2022-10-17T18:30:00.824Z,102528.59
2022-10-17T18:32:30.692Z,102519.13
2022-10-17T18:34:57.417Z,102525.28
2022-10-17T18:37:24.054Z,102529.63
2022-10-17T18:39:52.680Z,102529.63
2022-10-17T18:42:19.129Z,102527.91
2022-10-17T18:44:47.531Z,102520.16
2022-10-17T18:47:14.164Z,102521.00
2022-10-17T18:49:40.591Z,102527.28
2022-10-17T18:52:07.086Z,102528.19
2022-10-17T18:54:34.647Z,102528.19
2022-10-17T18:57:01.551Z,102543.09
2022-10-17T18:59:27.978Z,102533.53
2022-10-17T19:01:54.521Z,102545.88
2022-10-17T19:04:21.294Z,102545.13
2022-10-17T19:06:47.709Z,102540.75
2022-10-17T19:09:15.230Z,102543.38
2022-10-17T19:11:42.837Z,102540.84
2022-10-17T19:14:14.462Z,102553.13
2022-10-17T19:16:46.988Z,102553.13
2022-10-17T19:19:25.394Z,102549.66
2022-10-17T19:21:52.475Z,102551.50
2022-10-17T19:24:21.941Z,102553.31
2022-10-17T19:26:50.639Z,102556.97
2022-10-17T19:29:18.240Z,102552.56
2022-10-17T19:31:45.331Z,102556.97
2022-10-17T19:34:12.728Z,102564.06
2022-10-17T19:36:39.677Z,102564.13
2022-10-17T19:39:09.986Z,102553.78
2022-10-17T19:41:36.611Z,102555.47
2022-10-17T19:44:03.629Z,102551.16
2022-10-17T19:46:32.000Z,102557.38
2022-10-17T19:48:58.437Z,102552.13
2022-10-17T19:51:25.709Z,102559.16
2022-10-17T19:53:54.343Z,102553.91
2022-10-17T19:56:22.421Z,102570.56
2022-10-17T19:58:50.368Z,102561.84
2022-10-17T20:01:22.169Z,102562.88
2022-10-17T20:03:49.026Z,102569.94
2022-10-17T20:06:16.339Z,102569.16
2022-10-17T20:08:43.003Z,102567.53
2022-10-17T20:11:13.093Z,102575.47
2022-10-17T20:13:40.045Z,102574.66
2022-10-17T20:16:08.453Z,102583.56
2022-10-17T20:18:35.778Z,102581.06
2022-10-17T20:21:05.373Z,102590.72
2022-10-17T20:23:32.550Z,102595.97
2022-10-17T20:26:18.810Z,102598.66
2022-10-17T20:28:52.014Z,102591.72
2022-10-17T20:31:19.005Z,102604.88
2022-10-17T20:33:45.543Z,102609.28
2022-10-17T20:36:13.686Z,102614.59
2022-10-17T20:38:40.344Z,102611.13
2022-10-17T20:41:09.978Z,102614.66
2022-10-17T20:43:37.415Z,102608.50
2022-10-17T20:46:21.940Z,102613.81
2022-10-17T20:48:54.176Z,102620.69
2022-10-17T20:51:21.726Z,102624.31
2022-10-17T20:53:48.721Z,102635.66
2022-10-17T20:56:27.241Z,102641.78
2022-10-17T20:58:55.581Z,102641.69
2022-10-17T21:01:23.268Z,102641.91
2022-10-17T21:03:50.207Z,102643.72
2022-10-17T21:06:18.118Z,102650.81
2022-10-17T21:08:46.094Z,102652.59
2022-10-17T21:11:21.192Z,102665.78
2022-10-17T21:13:48.687Z,102665.78
2022-10-17T21:16:17.696Z,102664.13
2022-10-17T21:18:45.027Z,102665.94
2022-10-17T21:21:20.067Z,102674.75
2022-10-17T21:23:48.650Z,102668.75
2022-10-17T21:26:16.950Z,102667.09
2022-10-17T21:28:44.496Z,102667.94
2022-10-17T21:31:22.781Z,102667.94
2022-10-17T21:33:51.751Z,102665.34
2022-10-17T21:36:19.647Z,102676.78
2022-10-17T21:38:47.625Z,102674.28
2022-10-17T21:41:15.974Z,102669.16
2022-10-17T21:43:43.575Z,102665.75
2022-10-17T21:46:13.580Z,102665.88
2022-10-17T21:48:40.213Z,102663.38
2022-10-17T21:51:09.296Z,102668.63
2022-10-17T21:53:36.572Z,102664.28
2022-10-17T21:56:05.550Z,102667.81
2022-10-17T21:58:32.685Z,102669.66
2022-10-17T22:01:05.053Z,102666.25
2022-10-17T22:03:35.342Z,102673.31
2022-10-17T22:06:12.802Z,102673.47
2022-10-17T22:08:49.819Z,102677.91
2022-10-17T22:11:19.088Z,102678.88
2022-10-17T22:13:45.489Z,102689.44
2022-10-17T22:16:14.300Z,102689.56
2022-10-17T22:18:41.461Z,102688.75
2022-10-17T22:21:10.776Z,102691.50
2022-10-17T22:23:38.291Z,102684.59
2022-10-17T22:26:05.666Z,102696.94
2022-10-17T22:28:32.371Z,102697.88
2022-10-17T22:30:58.818Z,102689.19
2022-10-17T22:33:25.236Z,102691.88
2022-10-17T22:35:51.645Z,102703.28
2022-10-17T22:38:18.053Z,102700.72
2022-10-17T22:40:45.657Z,102692.91
2022-10-17T22:43:13.502Z,102701.69
2022-10-17T22:45:40.738Z,102699.16
2022-10-17T22:48:08.009Z,102700.88
2022-10-17T22:50:34.948Z,102703.63
2022-10-17T22:53:01.359Z,102704.53
2022-10-17T22:55:27.769Z,102703.78
2022-10-17T22:57:54.247Z,102711.66
2022-10-17T23:00:20.764Z,102714.38
2022-10-17T23:02:47.202Z,102707.34
2022-10-17T23:05:13.817Z,102697.00
2022-10-17T23:07:40.204Z,102698.75
2022-10-17T23:10:06.890Z,102708.44
2022-10-17T23:12:33.499Z,102707.66
2022-10-17T23:14:59.999Z,102703.38
2022-10-17T23:17:26.399Z,102708.66
2022-10-17T23:19:55.516Z,102712.22
2022-10-17T23:22:24.066Z,102712.28
2022-10-17T23:24:50.509Z,102718.31
2022-10-17T23:27:17.057Z,102710.50
2022-10-17T23:29:43.513Z,102710.56
2022-10-17T23:32:09.900Z,102703.66
2022-10-17T23:34:36.334Z,102711.50
2022-10-17T23:37:02.736Z,102709.81
2022-10-17T23:39:29.143Z,102707.19
2022-10-17T23:41:55.565Z,102701.13
2022-10-17T23:44:23.446Z,102698.56
2022-10-17T23:46:49.878Z,102707.31
2022-10-17T23:49:16.427Z,102709.09
2022-10-17T23:51:42.846Z,102708.28
2022-10-17T23:54:09.233Z,102706.53
2022-10-17T23:56:35.821Z,102707.44
2022-10-17T23:59:02.330Z,102707.44
